createdAt,value
2022-09-03T00:00:30.116Z,7.1
2022-09-03T00:01:30.121Z,7
2022-09-03T00:02:30.208Z,7
2022-09-03T00:03:30.094Z,7
2022-09-03T00:04:30.134Z,7.1
2022-09-03T00:05:30.171Z,7.1
2022-09-03T00:06:30.160Z,7.1
2022-09-03T00:07:30.175Z,7.1
2022-09-03T00:08:30.192Z,7
2022-09-03T00:09:30.174Z,7
2022-09-03T00:10:30.183Z,7.1
2022-09-03T00:11:30.198Z,7.1
2022-09-03T00:12:30.230Z,7.1
2022-09-03T00:13:30.223Z,7.1
2022-09-03T00:14:30.241Z,7.1
2022-09-03T00:15:30.178Z,7.1
2022-09-03T00:16:30.127Z,7.2
2022-09-03T00:17:30.261Z,7.2
2022-09-03T00:18:30.250Z,7.2
2022-09-03T00:19:30.151Z,7
2022-09-03T00:20:30.168Z,7.3
2022-09-03T00:21:30.190Z,7.2
2022-09-03T00:22:30.157Z,7.2
2022-09-03T00:23:30.123Z,7.2
2022-09-03T00:24:30.171Z,7.1
2022-09-03T00:25:30.218Z,7.2
2022-09-03T00:26:30.198Z,7.2
2022-09-03T00:27:30.226Z,7.2
2022-09-03T00:28:30.234Z,7.2
2022-09-03T00:29:30.217Z,7.2
2022-09-03T00:30:30.170Z,7.2
2022-09-03T00:31:30.278Z,7.2
2022-09-03T00:32:30.163Z,7.2
2022-09-03T00:33:30.163Z,7.3
2022-09-03T00:34:30.141Z,7.2
2022-09-03T00:35:30.156Z,7.2
2022-09-03T00:36:30.151Z,7.2
2022-09-03T00:37:33.704Z,7.2
2022-09-03T00:38:30.195Z,7.3
2022-09-03T00:39:30.211Z,7.2
2022-09-03T00:40:30.218Z,7.3
2022-09-03T00:41:30.187Z,7.3
2022-09-03T00:42:30.213Z,7.3
2022-09-03T00:43:30.133Z,7.3
2022-09-03T00:44:30.206Z,7.3
2022-09-03T00:45:30.232Z,7.2
2022-09-03T00:46:30.341Z,7.3
2022-09-03T00:47:30.151Z,7.3
2022-09-03T00:48:30.256Z,7.3
2022-09-03T00:49:30.182Z,7.3
2022-09-03T00:50:30.183Z,7.2
2022-09-03T00:51:30.267Z,7.3
2022-09-03T00:52:33.533Z,7.4
2022-09-03T00:53:30.144Z,7.4
2022-09-03T00:54:30.153Z,7.4
2022-09-03T00:55:30.154Z,7.4
2022-09-03T00:56:30.205Z,7.4
2022-09-03T00:57:30.147Z,7.3
2022-09-03T00:58:30.257Z,7.4
2022-09-03T00:59:30.135Z,7.3
2022-09-03T01:00:30.151Z,7.4
2022-09-03T01:01:30.335Z,7.4
2022-09-03T01:02:30.281Z,7.3
2022-09-03T01:03:30.142Z,7.3
2022-09-03T01:04:30.124Z,7.4
2022-09-03T01:05:30.184Z,7.4
2022-09-03T01:06:30.144Z,7.4
2022-09-03T01:07:30.220Z,7.4
2022-09-03T01:08:30.142Z,7.4
2022-09-03T01:09:30.135Z,7.4
2022-09-03T01:10:30.184Z,7.4
2022-09-03T01:11:30.207Z,7.4
2022-09-03T01:12:30.163Z,7.4
2022-09-03T01:13:30.132Z,7.4
2022-09-03T01:14:30.167Z,7.4
2022-09-03T01:15:30.266Z,7.4
2022-09-03T01:16:30.147Z,7.4
2022-09-03T01:17:30.151Z,7.6
2022-09-03T01:18:30.139Z,7.4
2022-09-03T01:19:30.145Z,7.4
2022-09-03T01:20:30.150Z,7.4
2022-09-03T01:21:30.159Z,7.5
2022-09-03T01:22:30.144Z,7.5
2022-09-03T01:23:30.154Z,7.5
2022-09-03T01:24:30.152Z,7.7
2022-09-03T01:25:30.162Z,7.6
2022-09-03T01:33:30.146Z,7.5
2022-09-03T01:34:30.106Z,7.6
2022-09-03T01:35:40.163Z,7.6
2022-09-03T01:36:33.655Z,7.7
2022-09-03T01:37:30.133Z,7.6
2022-09-03T01:38:30.116Z,7.5
2022-09-03T01:39:30.211Z,7.5
2022-09-03T01:40:30.225Z,7.6
2022-09-03T01:41:30.103Z,7.5
2022-09-03T01:42:30.096Z,7.5
2022-09-03T01:43:30.114Z,7.5
2022-09-03T01:44:30.108Z,7.6
2022-09-03T01:45:30.090Z,7.6
2022-09-03T01:46:30.287Z,7.6
2022-09-03T01:47:30.108Z,7.7
2022-09-03T01:48:30.106Z,7.7
2022-09-03T01:49:30.108Z,7.7
2022-09-03T01:50:30.109Z,7.7
2022-09-03T01:51:30.134Z,7.8
2022-09-03T01:52:30.111Z,7.7
2022-09-03T01:53:30.136Z,7.7
2022-09-03T01:54:30.140Z,7.8
2022-09-03T01:55:30.132Z,7.7
2022-09-03T01:56:30.108Z,7.7
2022-09-03T01:57:35.444Z,7.8
2022-09-03T01:58:30.160Z,7.7
2022-09-03T01:59:30.110Z,7.7
2022-09-03T02:00:30.133Z,7.8
2022-09-03T02:01:30.186Z,7.8
2022-09-03T02:02:30.237Z,7.7
2022-09-03T02:03:30.117Z,7.8
2022-09-03T02:04:30.112Z,7.7
2022-09-03T02:05:30.139Z,7.8
2022-09-03T02:06:30.118Z,7.7
2022-09-03T02:07:30.150Z,7.7
2022-09-03T02:08:30.135Z,7.8
2022-09-03T02:09:32.758Z,7.7
2022-09-03T02:10:30.113Z,7.8
2022-09-03T02:11:30.149Z,7.9
2022-09-03T02:12:30.113Z,7.8
2022-09-03T02:13:30.158Z,7.9
2022-09-03T02:14:30.144Z,7.9
2022-09-03T02:15:30.181Z,7.9
2022-09-03T02:16:30.102Z,7.9
2022-09-03T02:17:30.127Z,7.8
2022-09-03T02:18:32.148Z,7.9
2022-09-03T02:19:30.139Z,7.9
2022-09-03T02:20:30.142Z,7.8
2022-09-03T02:21:30.141Z,7.8
2022-09-03T02:22:30.111Z,7.8
2022-09-03T02:23:30.123Z,7.9
2022-09-03T02:24:30.164Z,7.9
2022-09-03T02:25:30.108Z,7.9
2022-09-03T02:26:30.128Z,8
2022-09-03T02:27:30.187Z,7.9
2022-09-03T02:28:30.300Z,8
2022-09-03T02:29:30.135Z,7.9
2022-09-03T02:30:30.183Z,8
2022-09-03T02:31:30.153Z,8
2022-09-03T02:32:30.121Z,8
2022-09-03T02:33:30.122Z,8
2022-09-03T02:34:30.157Z,7.9
2022-09-03T02:35:30.134Z,7.9
2022-09-03T02:36:30.124Z,7.9
2022-09-03T02:37:30.132Z,7.9
2022-09-03T02:38:30.128Z,8
2022-09-03T02:39:30.188Z,7.9
2022-09-03T02:40:30.143Z,8
2022-09-03T02:41:30.161Z,7.9
2022-09-03T02:42:30.141Z,7.9
2022-09-03T02:43:30.153Z,8
2022-09-03T02:44:30.120Z,8
2022-09-03T02:45:30.146Z,8
2022-09-03T02:46:30.238Z,8
2022-09-03T02:47:30.144Z,8
2022-09-03T02:48:30.158Z,8
2022-09-03T02:49:30.115Z,7.9
2022-09-03T02:50:30.123Z,7.9
2022-09-03T02:51:30.205Z,8
2022-09-03T02:52:30.136Z,7.9
2022-09-03T02:53:30.140Z,8
2022-09-03T02:54:30.130Z,8
2022-09-03T02:55:30.144Z,8.1
2022-09-03T02:56:30.126Z,8
2022-09-03T02:57:30.132Z,8.1
2022-09-03T02:58:30.282Z,7.9
2022-09-03T02:59:30.131Z,8.1
2022-09-03T03:00:30.143Z,8.1
2022-09-03T03:01:30.181Z,8.1
2022-09-03T03:02:30.221Z,8.1
2022-09-03T03:03:30.132Z,8
2022-09-03T03:04:30.141Z,8.2
2022-09-03T03:05:30.126Z,8.1
2022-09-03T03:06:30.143Z,8
2022-09-03T03:07:30.147Z,8
2022-09-03T03:08:30.137Z,8.1
2022-09-03T03:09:30.161Z,8.1
2022-09-03T03:10:30.136Z,8
2022-09-03T03:11:30.176Z,8.1
2022-09-03T03:12:30.138Z,8.2
2022-09-03T03:13:30.127Z,8.1
2022-09-03T03:14:30.147Z,8.1
2022-09-03T03:15:30.165Z,8.1
2022-09-03T03:16:30.178Z,8
2022-09-03T03:17:30.151Z,8.1
2022-09-03T03:18:30.135Z,8.2
2022-09-03T03:19:30.130Z,8.1
2022-09-03T03:20:30.157Z,8.1
2022-09-03T03:21:30.128Z,8.1
2022-09-03T03:22:30.165Z,8.2
2022-09-03T03:23:30.143Z,8.2
2022-09-03T03:24:30.132Z,8.2
2022-09-03T03:25:32.208Z,8.1
2022-09-03T03:26:30.147Z,8
2022-09-03T03:27:30.147Z,8.1
2022-09-03T03:28:30.138Z,8.2
2022-09-03T03:29:30.161Z,8.2
2022-09-03T03:30:30.201Z,8.2
2022-09-03T03:31:30.158Z,8.1
2022-09-03T03:32:30.153Z,8.2
2022-09-03T03:33:30.152Z,8.1
2022-09-03T03:34:30.137Z,8.2
2022-09-03T03:35:30.138Z,49.3
2022-09-03T03:36:30.176Z,8.3
2022-09-03T03:37:30.128Z,8.2
2022-09-03T03:38:30.203Z,8.2
2022-09-03T03:39:30.173Z,8.2
2022-09-03T03:40:30.128Z,8.3
2022-09-03T03:41:30.141Z,8.3
2022-09-03T03:42:30.126Z,8.2
2022-09-03T03:43:30.160Z,8.3
2022-09-03T03:44:30.146Z,8.4
2022-09-03T03:45:30.133Z,8.3
2022-09-03T03:46:30.149Z,8.3
2022-09-03T03:47:30.131Z,8.3
2022-09-03T03:48:30.128Z,8.4
2022-09-03T03:49:30.144Z,8.4
2022-09-03T03:50:30.159Z,8.4
2022-09-03T03:51:30.138Z,8.4
2022-09-03T03:52:30.158Z,8.3
2022-09-03T03:53:30.173Z,8.4
2022-09-03T03:54:30.146Z,8.5
2022-09-03T03:55:30.747Z,8.3
2022-09-03T03:56:30.151Z,8.6
2022-09-03T03:57:30.173Z,8.6
2022-09-03T03:58:30.141Z,8.4
2022-09-03T03:59:30.135Z,8.5
2022-09-03T04:00:30.144Z,8.4
2022-09-03T04:01:30.237Z,8.6
2022-09-03T04:02:30.204Z,8.6
2022-09-03T04:03:30.170Z,8.6
2022-09-03T04:04:30.216Z,8.5
2022-09-03T04:05:33.603Z,8.5
2022-09-03T04:06:30.142Z,8.5
2022-09-03T04:07:30.175Z,8.4
2022-09-03T04:08:30.180Z,8.4
2022-09-03T04:09:30.173Z,8.4
2022-09-03T04:10:30.182Z,8.4
2022-09-03T04:11:30.150Z,8.4
2022-09-03T04:12:30.193Z,8.4
2022-09-03T04:13:30.138Z,8.4
2022-09-03T04:14:30.194Z,8.4
2022-09-03T04:15:30.254Z,8.4
2022-09-03T04:16:30.221Z,8.4
2022-09-03T04:17:30.214Z,8.3
2022-09-03T04:18:30.224Z,8.5
2022-09-03T04:19:30.177Z,8.4
2022-09-03T04:20:30.132Z,8.4
2022-09-03T04:21:30.140Z,8.4
2022-09-03T04:22:30.137Z,8.3
2022-09-03T04:23:30.154Z,8.3
2022-09-03T04:24:30.166Z,8.5
2022-09-03T04:25:30.126Z,8.3
2022-09-03T04:26:30.170Z,8.5
2022-09-03T04:27:30.189Z,8.5
2022-09-03T04:28:30.275Z,8.5
2022-09-03T04:29:30.191Z,8.4
2022-09-03T04:30:30.283Z,8.5
2022-09-03T04:31:30.157Z,8.5
2022-09-03T04:32:32.217Z,8.5
2022-09-03T04:33:30.307Z,8.5
2022-09-03T04:34:30.224Z,8.6
2022-09-03T04:35:30.235Z,8.6
2022-09-03T04:36:30.165Z,8.5
2022-09-03T04:37:30.149Z,8.6
2022-09-03T04:38:30.149Z,8.7
2022-09-03T04:39:30.226Z,8.7
2022-09-03T04:40:30.173Z,8.7
2022-09-03T04:41:30.181Z,8.6
2022-09-03T04:42:30.143Z,8.6
2022-09-03T04:43:30.173Z,8.7
2022-09-03T04:44:30.201Z,8.6
2022-09-03T04:45:30.314Z,8.6
2022-09-03T04:46:30.238Z,8.6
2022-09-03T04:47:30.200Z,8.6
2022-09-03T04:48:30.160Z,8.6
2022-09-03T04:49:30.215Z,8.7
2022-09-03T04:50:30.136Z,8.6
2022-09-03T04:51:30.257Z,8.6
2022-09-03T04:52:30.322Z,8.5
2022-09-03T04:53:30.394Z,8.7
2022-09-03T04:54:30.532Z,8.8
2022-09-03T04:55:30.454Z,8.8
2022-09-03T04:56:30.551Z,8.7
2022-09-03T04:57:30.190Z,8.6
2022-09-03T04:58:30.187Z,8.6
2022-09-03T04:59:30.173Z,8.6
2022-09-03T05:00:30.149Z,8.7
2022-09-03T05:01:30.303Z,8.7
2022-09-03T05:02:30.274Z,8.6
2022-09-03T05:03:30.224Z,8.6
2022-09-03T05:04:30.695Z,8.6
2022-09-03T05:05:31.217Z,8.6
2022-09-03T05:06:30.853Z,8.7
2022-09-03T05:07:30.171Z,8.7
2022-09-03T05:08:30.158Z,8.7
2022-09-03T05:09:30.152Z,8.8
2022-09-03T05:10:30.160Z,8.8
2022-09-03T05:11:30.204Z,8.7
2022-09-03T05:12:30.177Z,8.7
2022-09-03T05:13:30.151Z,8.6
2022-09-03T05:14:30.279Z,8.6
2022-09-03T05:15:30.195Z,8.7
2022-09-03T05:16:30.456Z,8.7
2022-09-03T05:17:30.209Z,8.7
2022-09-03T05:18:30.136Z,8.7
2022-09-03T05:19:30.221Z,8.7
2022-09-03T05:20:30.235Z,8.8
2022-09-03T05:21:30.155Z,8.7
2022-09-03T05:22:30.166Z,8.7
2022-09-03T05:23:34.301Z,8.7
2022-09-03T05:24:30.291Z,8.7
2022-09-03T05:25:30.232Z,8.7
2022-09-03T05:26:30.157Z,8.7
2022-09-03T05:27:30.167Z,8.9
2022-09-03T05:28:30.211Z,8.8
2022-09-03T05:29:30.207Z,8.8
2022-09-03T05:30:30.219Z,8.8
2022-09-03T05:31:30.331Z,8.8
2022-09-03T05:32:30.186Z,8.8
2022-09-03T05:33:30.157Z,8.6
2022-09-03T05:34:30.151Z,8.8
2022-09-03T05:35:30.472Z,8.8
2022-09-03T05:36:30.251Z,8.8
2022-09-03T05:37:30.358Z,8.8
2022-09-03T05:38:30.155Z,8.9
2022-09-03T05:39:32.442Z,8.8
2022-09-03T05:40:30.183Z,8.9
2022-09-03T05:41:30.193Z,8.8
2022-09-03T05:42:30.193Z,8.9
2022-09-03T05:43:30.201Z,8.9
2022-09-03T05:44:30.154Z,8.8
2022-09-03T05:45:30.264Z,8.9
2022-09-03T05:46:30.209Z,9
2022-09-03T05:47:30.216Z,8.9
2022-09-03T05:48:30.223Z,8.9
2022-09-03T05:49:30.231Z,8.9
2022-09-03T05:50:30.140Z,8.9
2022-09-03T05:51:30.178Z,9
2022-09-03T05:52:30.152Z,9
2022-09-03T05:53:30.183Z,9
2022-09-03T05:54:30.149Z,9
2022-09-03T05:55:30.178Z,8.9
2022-09-03T05:56:30.155Z,8.8
2022-09-03T05:57:30.159Z,8.8
2022-09-03T05:58:30.195Z,8.9
2022-09-03T05:59:30.187Z,8.8
2022-09-03T06:00:30.210Z,9
2022-09-03T06:01:30.514Z,9.1
2022-09-03T06:02:30.273Z,9
2022-09-03T06:03:30.326Z,8.9
2022-09-03T06:04:30.234Z,8.9
2022-09-03T06:05:30.150Z,9
2022-09-03T06:06:30.150Z,8.8
2022-09-03T06:07:30.255Z,9
2022-09-03T06:08:30.179Z,8.9
2022-09-03T06:09:30.161Z,9
2022-09-03T06:10:36.458Z,8.9
2022-09-03T06:11:30.174Z,9.1
2022-09-03T06:12:30.274Z,8.9
2022-09-03T06:13:30.337Z,9
2022-09-03T06:14:30.287Z,9
2022-09-03T06:15:30.191Z,9
2022-09-03T06:16:31.607Z,9.3
2022-09-03T06:17:30.196Z,9.2
2022-09-03T06:18:31.835Z,9.2
2022-09-03T06:19:30.143Z,9.2
2022-09-03T06:20:33.832Z,9.2
2022-09-03T06:21:30.175Z,9.3
2022-09-03T06:22:30.612Z,9.3
2022-09-03T06:23:30.174Z,9
2022-09-03T06:24:30.162Z,9.3
2022-09-03T06:25:30.165Z,9.3
2022-09-03T06:26:30.175Z,9.3
2022-09-03T06:27:35.192Z,9.1
2022-09-03T06:28:30.280Z,9.2
2022-09-03T06:29:30.188Z,9.2
2022-09-03T06:30:30.152Z,9.2
2022-09-03T06:31:30.272Z,9.3
2022-09-03T06:32:30.153Z,9.2
2022-09-03T06:33:30.170Z,9.3
2022-09-03T06:34:30.275Z,9.2
2022-09-03T06:35:30.208Z,9.1
2022-09-03T06:36:30.229Z,9.3
2022-09-03T06:37:30.227Z,9.4
2022-09-03T06:38:30.241Z,9.2
2022-09-03T06:39:30.294Z,9.2
2022-09-03T06:40:30.346Z,9.2
2022-09-03T06:41:30.231Z,9.3
2022-09-03T06:42:30.179Z,9.3
2022-09-03T06:43:30.200Z,9.4
2022-09-03T06:44:30.307Z,9.4
2022-09-03T06:45:30.300Z,9.3
2022-09-03T06:46:32.209Z,9.4
2022-09-03T06:47:30.176Z,9.3
2022-09-03T06:48:30.211Z,9.3
2022-09-03T06:49:30.210Z,9.5
2022-09-03T06:50:33.984Z,9.6
2022-09-03T06:51:30.319Z,9.6
2022-09-03T06:52:30.167Z,9.6
2022-09-03T06:53:31.960Z,9.4
2022-09-03T06:54:30.231Z,9.4
2022-09-03T06:55:30.238Z,9.4
2022-09-03T06:56:30.164Z,9.5
2022-09-03T06:57:30.252Z,9.7
2022-09-03T06:58:30.191Z,9.4
2022-09-03T06:59:30.176Z,9.5
2022-09-03T07:00:31.753Z,9.4
2022-09-03T07:01:30.353Z,9.5
2022-09-03T07:02:30.183Z,9.6
2022-09-03T07:03:30.297Z,9.4
2022-09-03T07:04:30.292Z,9.5
2022-09-03T07:05:30.212Z,9.7
2022-09-03T07:06:30.208Z,9.5
2022-09-03T07:07:30.231Z,9.5
2022-09-03T07:08:30.231Z,9.3
2022-09-03T07:09:30.643Z,9.5
2022-09-03T07:10:49.383Z,9.5
2022-09-03T07:11:30.256Z,9.5
2022-09-03T07:12:30.159Z,9.4
2022-09-03T07:13:30.161Z,9.5
2022-09-03T07:14:30.162Z,9.6
2022-09-03T07:15:30.301Z,9.6
2022-09-03T07:16:30.380Z,9.5
2022-09-03T07:17:30.197Z,9.5
2022-09-03T07:18:31.021Z,9.6
2022-09-03T07:19:30.212Z,9.6
2022-09-03T07:20:35.327Z,9.5
2022-09-03T07:21:30.380Z,9.5
2022-09-03T07:22:31.310Z,9.6
2022-09-03T07:23:30.237Z,9.4
2022-09-03T07:24:30.339Z,9.5
2022-09-03T07:25:30.248Z,9.7
2022-09-03T07:26:30.600Z,9.7
2022-09-03T07:27:30.157Z,9.9
2022-09-03T07:28:30.173Z,9.7
2022-09-03T07:29:30.281Z,9.9
2022-09-03T07:30:30.180Z,9.9
2022-09-03T07:31:30.253Z,9.8
2022-09-03T07:32:30.206Z,9.7
2022-09-03T07:33:33.674Z,9.7
2022-09-03T07:34:30.188Z,10
2022-09-03T07:35:30.210Z,9.7
2022-09-03T07:36:35.271Z,9.7
2022-09-03T07:37:30.237Z,9.9
2022-09-03T07:38:30.224Z,9.7
2022-09-03T07:39:30.271Z,9.8
2022-09-03T07:40:30.177Z,9.7
2022-09-03T07:41:30.193Z,9.9
2022-09-03T07:42:30.269Z,10
2022-09-03T07:43:30.424Z,10
2022-09-03T07:44:30.183Z,10.1
2022-09-03T07:45:30.304Z,9.9
2022-09-03T07:46:30.255Z,10
2022-09-03T07:47:30.191Z,10
2022-09-03T07:48:32.262Z,10.1
2022-09-03T07:49:30.438Z,9.8
2022-09-03T07:50:30.954Z,9.9
2022-09-03T07:51:30.167Z,9.7
2022-09-03T07:52:30.213Z,10
2022-09-03T07:53:30.240Z,9.7
2022-09-03T07:54:30.176Z,9.9
2022-09-03T07:55:30.330Z,9.9
2022-09-03T07:56:30.256Z,10.1
2022-09-03T07:57:30.343Z,10
2022-09-03T07:58:30.173Z,9.9
2022-09-03T07:59:30.194Z,10.1
2022-09-03T08:00:30.335Z,10.1
2022-09-03T08:01:30.281Z,10.2
2022-09-03T08:02:30.432Z,10.1
2022-09-03T08:03:30.281Z,10.1
2022-09-03T08:04:30.209Z,10
2022-09-03T08:05:30.199Z,10.2
2022-09-03T08:06:30.175Z,10.1
2022-09-03T08:07:30.316Z,10.2
2022-09-03T08:08:33.667Z,10.2
2022-09-03T08:09:30.183Z,10.2
2022-09-03T08:10:30.218Z,10.5
2022-09-03T08:11:30.249Z,10.5
2022-09-03T08:12:30.234Z,10.3
2022-09-03T08:13:30.179Z,10.1
2022-09-03T08:14:35.480Z,10.4
2022-09-03T08:15:30.252Z,10.4
2022-09-03T08:16:30.301Z,10.5
2022-09-03T08:17:30.382Z,10.4
2022-09-03T08:18:30.281Z,10.5
2022-09-03T08:19:30.580Z,10.4
2022-09-03T08:20:30.170Z,10.3
2022-09-03T08:21:30.206Z,10.2
2022-09-03T08:22:30.199Z,10.3
2022-09-03T08:23:30.202Z,10.4
2022-09-03T08:24:30.322Z,10.5
2022-09-03T08:25:30.218Z,10.5
2022-09-03T08:26:30.559Z,10.5
2022-09-03T08:27:30.229Z,10.5
2022-09-03T08:28:30.175Z,10.5
2022-09-03T08:29:30.179Z,10.4
2022-09-03T08:30:30.163Z,10.5
2022-09-03T08:31:30.437Z,10.7
2022-09-03T08:32:30.172Z,10.6
2022-09-03T08:33:30.296Z,11
2022-09-03T08:34:30.197Z,11
2022-09-03T08:35:30.177Z,11.2
2022-09-03T08:36:30.267Z,11.3
2022-09-03T08:37:30.199Z,11.3
2022-09-03T08:38:30.208Z,11.4
2022-09-03T08:39:30.245Z,12.1
2022-09-03T08:40:30.267Z,12.2
2022-09-03T08:41:30.227Z,12.4
2022-09-03T08:42:30.229Z,12.5
2022-09-03T08:43:30.793Z,13
2022-09-03T08:44:30.431Z,12.9
2022-09-03T08:45:30.247Z,13
2022-09-03T08:46:30.248Z,13.2
2022-09-03T08:47:30.180Z,12.9
2022-09-03T08:48:30.539Z,12.8
2022-09-03T08:49:30.268Z,13.2
2022-09-03T08:50:30.194Z,13
2022-09-03T08:51:30.220Z,12.8
2022-09-03T08:52:31.469Z,13
2022-09-03T08:53:30.201Z,12.8
2022-09-03T08:54:30.199Z,12.8
2022-09-03T08:55:30.207Z,12.9
2022-09-03T08:56:30.234Z,12.9
2022-09-03T08:57:30.227Z,12.6
2022-09-03T08:58:30.227Z,13
2022-09-03T08:59:32.869Z,13
2022-09-03T09:00:30.199Z,12.9
2022-09-03T09:01:30.266Z,12.7
2022-09-03T09:02:30.363Z,12.9
2022-09-03T09:03:30.259Z,12.7
2022-09-03T09:04:30.416Z,12.9
2022-09-03T09:05:30.470Z,12.9
2022-09-03T09:06:30.209Z,13
2022-09-03T09:07:30.700Z,13.1
2022-09-03T09:08:30.187Z,12.8
2022-09-03T09:09:30.197Z,12.7
2022-09-03T09:10:30.203Z,12.8
2022-09-03T09:11:30.443Z,12.9
2022-09-03T09:12:34.000Z,12.6
2022-09-03T09:13:30.248Z,12.7
2022-09-03T09:14:30.647Z,12.7
2022-09-03T09:15:30.190Z,12.4
2022-09-03T09:16:30.284Z,12.3
2022-09-03T09:17:30.271Z,12.3
2022-09-03T09:18:30.258Z,12.6
2022-09-03T09:19:30.372Z,12.3
2022-09-03T09:20:30.274Z,12.4
2022-09-03T09:21:30.186Z,12.3
2022-09-03T09:22:30.281Z,12
2022-09-03T09:23:30.187Z,12.1
2022-09-03T09:24:30.201Z,12.1
2022-09-03T09:25:30.187Z,12.4
2022-09-03T09:26:30.218Z,12.2
2022-09-03T09:27:30.208Z,11.7
2022-09-03T09:28:30.253Z,11.7
2022-09-03T09:29:30.232Z,11.7
2022-09-03T09:30:30.211Z,11.9
2022-09-03T09:31:30.285Z,12.1
2022-09-03T09:32:30.253Z,11.9
2022-09-03T09:33:30.194Z,11.7
2022-09-03T09:34:30.187Z,11.8
2022-09-03T09:35:30.177Z,11.9
2022-09-03T09:36:30.283Z,11.9
2022-09-03T09:37:30.282Z,11.9
2022-09-03T09:38:30.188Z,12.1
2022-09-03T09:39:30.325Z,11.9
2022-09-03T09:40:30.191Z,11.9
2022-09-03T09:41:30.219Z,12
2022-09-03T09:42:30.217Z,11.8
2022-09-03T09:43:30.218Z,11.7
2022-09-03T09:44:30.214Z,11.8
2022-09-03T09:45:30.221Z,11.8
2022-09-03T09:46:30.288Z,11.9
2022-09-03T09:47:30.234Z,11.8
2022-09-03T09:48:30.197Z,12.1
2022-09-03T09:49:30.179Z,12.2
2022-09-03T09:50:30.263Z,12.3
2022-09-03T09:51:30.186Z,12.3
2022-09-03T09:52:30.270Z,12.3
2022-09-03T09:53:30.214Z,11.9
2022-09-03T09:54:30.272Z,12.3
2022-09-03T09:55:30.283Z,12.1
2022-09-03T09:56:30.321Z,12
2022-09-03T09:57:30.209Z,12.2
2022-09-03T09:58:30.194Z,11.8
2022-09-03T09:59:30.198Z,12
2022-09-03T10:00:30.248Z,12
2022-09-03T10:01:30.314Z,12
2022-09-03T10:02:30.261Z,11.9
2022-09-03T10:03:30.276Z,12.2
2022-09-03T10:04:32.983Z,12.3
2022-09-03T10:05:30.240Z,12.2
2022-09-03T10:06:30.200Z,12.4
2022-09-03T10:07:30.250Z,12.4
2022-09-03T10:08:30.289Z,12.5
2022-09-03T10:09:30.899Z,12.1
2022-09-03T10:10:30.196Z,12.4
2022-09-03T10:11:30.300Z,12.4
2022-09-03T10:12:30.209Z,12.5
2022-09-03T10:13:30.305Z,12.4
2022-09-03T10:14:30.309Z,12.5
2022-09-03T10:15:30.250Z,12.4
2022-09-03T10:16:30.185Z,12.6
2022-09-03T10:17:36.881Z,12.5
2022-09-03T10:18:30.563Z,12.6
2022-09-03T10:19:30.200Z,12.4
2022-09-03T10:20:30.248Z,12.9
2022-09-03T10:21:30.205Z,13.1
2022-09-03T10:22:32.344Z,12.9
2022-09-03T10:23:30.189Z,13
2022-09-03T10:24:30.265Z,13.2
2022-09-03T10:25:30.268Z,13.1
2022-09-03T10:26:32.076Z,13
2022-09-03T10:27:32.080Z,13.2
2022-09-03T10:28:30.379Z,13
2022-09-03T10:29:30.410Z,12.9
2022-09-03T10:30:30.421Z,12.6
2022-09-03T10:31:30.419Z,12.6
2022-09-03T10:32:38.852Z,13
2022-09-03T10:33:30.539Z,13
2022-09-03T10:34:30.241Z,13
2022-09-03T10:35:30.332Z,12.9
2022-09-03T10:36:30.249Z,13
2022-09-03T10:37:30.238Z,13
2022-09-03T10:38:30.272Z,13
2022-09-03T10:39:30.274Z,12.9
2022-09-03T10:40:30.199Z,12.9
2022-09-03T10:41:30.294Z,12.8
2022-09-03T10:42:30.271Z,12.8
2022-09-03T10:43:30.188Z,12.9
2022-09-03T10:44:30.218Z,12.8
2022-09-03T10:45:30.296Z,13
2022-09-03T10:46:30.231Z,13
2022-09-03T10:47:30.190Z,12.9
2022-09-03T10:48:30.330Z,13
2022-09-03T10:49:30.221Z,12.8
2022-09-03T10:50:30.229Z,13.2
2022-09-03T10:51:30.245Z,12.9
2022-09-03T10:52:30.261Z,12.9
2022-09-03T10:53:30.194Z,13.1
2022-09-03T10:54:30.258Z,12.9
2022-09-03T10:55:30.240Z,12.9
2022-09-03T10:56:30.296Z,12.9
2022-09-03T10:57:30.278Z,13
2022-09-03T10:58:30.246Z,13.1
2022-09-03T10:59:30.196Z,13.2
2022-09-03T11:00:30.197Z,13.3
2022-09-03T11:01:30.485Z,13.1
2022-09-03T11:02:30.410Z,13.2
2022-09-03T11:03:30.223Z,13.1
2022-09-03T11:04:30.210Z,13.3
2022-09-03T11:05:30.234Z,13.3
2022-09-03T11:06:30.235Z,13.4
2022-09-03T11:07:30.533Z,13.4
2022-09-03T11:08:30.284Z,13
2022-09-03T11:09:30.253Z,13.2
2022-09-03T11:10:30.931Z,13.3
2022-09-03T11:11:30.208Z,13.2
2022-09-03T11:12:30.269Z,13.2
2022-09-03T11:13:30.804Z,13.3
2022-09-03T11:14:30.388Z,13.2
2022-09-03T11:15:30.309Z,13.4
2022-09-03T11:16:30.208Z,13.7
2022-09-03T11:17:30.388Z,13.9
2022-09-03T11:18:30.220Z,13.8
2022-09-03T11:19:30.223Z,13.7
2022-09-03T11:20:30.322Z,13.9
2022-09-03T11:21:30.245Z,13.7
2022-09-03T11:22:30.206Z,13.8
2022-09-03T11:23:30.450Z,13.8
2022-09-03T11:24:30.238Z,13.8
2022-09-03T11:25:30.257Z,13.7
2022-09-03T11:26:30.225Z,13.5
2022-09-03T11:27:30.231Z,13.3
2022-09-03T11:28:30.270Z,13.3
2022-09-03T11:29:30.194Z,13.6
2022-09-03T11:30:35.348Z,13.5
2022-09-03T11:31:30.291Z,13.8
2022-09-03T11:32:30.268Z,14
2022-09-03T11:33:30.298Z,13.8
2022-09-03T11:34:32.279Z,13.8
2022-09-03T11:35:30.349Z,13.8
2022-09-03T11:36:30.214Z,13.7
2022-09-03T11:37:30.217Z,13.7
2022-09-03T11:38:30.221Z,13.4
2022-09-03T11:39:30.288Z,13.8
2022-09-03T11:40:30.242Z,13.5
2022-09-03T11:41:30.264Z,13.7
2022-09-03T11:42:30.277Z,13.9
2022-09-03T11:43:30.206Z,14
2022-09-03T11:44:30.272Z,14.2
2022-09-03T11:45:30.278Z,14.2
2022-09-03T11:46:30.272Z,14.1
2022-09-03T11:47:30.399Z,14.1
2022-09-03T11:48:30.199Z,14.1
2022-09-03T11:49:30.220Z,14.1
2022-09-03T11:50:30.310Z,14
2022-09-03T11:51:30.271Z,13.9
2022-09-03T11:52:30.210Z,13.9
2022-09-03T11:53:30.244Z,14.1
2022-09-03T11:54:30.298Z,14
2022-09-03T11:55:32.677Z,14.1
2022-09-03T11:56:30.263Z,14.3
2022-09-03T11:57:30.253Z,14.2
2022-09-03T11:58:30.208Z,13.9
2022-09-03T11:59:30.397Z,14.1
2022-09-03T12:00:30.215Z,14.1
2022-09-03T12:01:30.212Z,14.1
2022-09-03T12:02:30.286Z,14
2022-09-03T12:03:30.230Z,14
2022-09-03T12:04:30.285Z,14
2022-09-03T12:05:30.239Z,14
2022-09-03T12:06:30.535Z,14.1
2022-09-03T12:07:30.320Z,14.3
2022-09-03T12:08:30.207Z,14.3
2022-09-03T12:09:30.341Z,14.5
2022-09-03T12:10:30.262Z,14.8
2022-09-03T12:11:30.235Z,14.7
2022-09-03T12:12:30.210Z,14.6
2022-09-03T12:13:30.214Z,14.4
2022-09-03T12:14:30.219Z,14.5
2022-09-03T12:15:30.235Z,14.2
2022-09-03T12:16:30.279Z,14.2
2022-09-03T12:17:30.216Z,14.1
2022-09-03T12:18:30.510Z,14.1
2022-09-03T12:19:30.214Z,14.2
2022-09-03T12:20:30.294Z,14.4
2022-09-03T12:21:30.243Z,14.7
2022-09-03T12:22:30.317Z,14.8
2022-09-03T12:23:30.318Z,15
2022-09-03T12:24:31.839Z,15
2022-09-03T12:25:30.332Z,15.1
2022-09-03T12:26:30.226Z,15.1
2022-09-03T12:27:30.232Z,15
2022-09-03T12:28:30.228Z,14.9
2022-09-03T12:29:31.111Z,15
2022-09-03T12:30:30.623Z,15
2022-09-03T12:31:30.255Z,15
2022-09-03T12:32:30.372Z,15
2022-09-03T12:33:30.215Z,15.1
2022-09-03T12:34:30.280Z,15.1
2022-09-03T12:35:59.118Z,15.2
2022-09-03T12:36:30.298Z,15.1
2022-09-03T12:38:30.219Z,15.1
2022-09-03T12:40:30.366Z,15.1
2022-09-03T12:41:30.321Z,15.2
2022-09-03T12:42:30.239Z,15.3
2022-09-03T12:43:38.669Z,15.3
2022-09-03T12:44:30.225Z,15.2
2022-09-03T12:46:09.844Z,15.3
2022-09-03T12:46:33.684Z,15.6
2022-09-03T12:47:36.093Z,15.2
2022-09-03T12:48:30.271Z,15.4
2022-09-03T12:49:30.848Z,15.3
2022-09-03T12:50:30.233Z,15.4
2022-09-03T12:52:30.310Z,15.3
2022-09-03T12:53:30.229Z,15.6
2022-09-03T12:54:30.722Z,15.4
2022-09-03T12:55:30.249Z,15.6
2022-09-03T12:56:30.339Z,15.6
2022-09-03T12:57:30.327Z,15.5
2022-09-03T12:58:30.240Z,15.8
2022-09-03T12:59:30.557Z,15.7
2022-09-03T13:00:30.240Z,15.8
2022-09-03T13:01:30.342Z,15.3
2022-09-03T13:02:30.309Z,15.5
2022-09-03T13:03:30.367Z,15.7
2022-09-03T13:04:30.276Z,15.4
2022-09-03T13:05:30.233Z,15.4
2022-09-03T13:06:30.230Z,15.6
2022-09-03T13:07:30.237Z,15.8
2022-09-03T13:08:30.264Z,15.8
2022-09-03T13:09:30.301Z,15.8
2022-09-03T13:10:30.355Z,15.7
2022-09-03T13:11:30.462Z,15.7
2022-09-03T13:12:32.035Z,15.6
2022-09-03T13:13:30.782Z,15.6
2022-09-03T13:14:30.275Z,16
2022-09-03T13:15:30.385Z,16.1
2022-09-03T13:16:31.272Z,16
2022-09-03T13:17:30.275Z,16.1
2022-09-03T13:18:30.286Z,15.8
2022-09-03T13:19:30.301Z,16
2022-09-03T13:20:30.272Z,16
2022-09-03T13:21:30.497Z,16
2022-09-03T13:22:30.267Z,16
2022-09-03T13:23:30.293Z,16.1
2022-09-03T13:24:30.240Z,16
2022-09-03T13:25:30.305Z,15.9
2022-09-03T13:26:30.329Z,16.1
2022-09-03T13:27:30.250Z,16
2022-09-03T13:28:30.330Z,16.3
2022-09-03T13:29:30.330Z,16
2022-09-03T13:30:30.300Z,16.4
2022-09-03T13:31:30.243Z,16.1
2022-09-03T13:32:30.268Z,15.9
2022-09-03T13:33:30.659Z,16.2
2022-09-03T13:34:30.315Z,16.1
2022-09-03T13:35:30.271Z,16.3
2022-09-03T13:36:30.318Z,16.2
2022-09-03T13:37:30.292Z,15.9
2022-09-03T13:38:32.866Z,15.8
2022-09-03T13:39:30.303Z,15.6
2022-09-03T13:40:30.261Z,15.4
2022-09-03T13:41:30.328Z,15.1
2022-09-03T13:42:30.350Z,15
2022-09-03T13:43:30.340Z,15.2
2022-09-03T13:44:30.345Z,15.2
2022-09-03T13:45:30.250Z,15.2
2022-09-03T13:46:30.357Z,15.2
2022-09-03T13:47:30.420Z,15.3
2022-09-03T13:48:30.243Z,15.4
2022-09-03T13:49:30.343Z,15.4
2022-09-03T13:50:30.342Z,15.5